createdAt,value
2019-01-27T00:01:26.278Z,94220.52
2019-01-27T00:03:53.707Z,94228.23
2019-01-27T00:06:21.370Z,94228.23
2019-01-27T00:08:48.800Z,94243.20
2019-01-27T00:11:16.230Z,94245.03
2019-01-27T00:13:43.616Z,94249.02
2019-01-27T00:16:11.243Z,94244.93
2019-01-27T00:18:38.762Z,94247.81
2019-01-27T00:21:06.414Z,94243.61
2019-01-27T00:23:33.924Z,94254.55
2019-01-27T00:26:01.347Z,94254.55
2019-01-27T00:28:28.820Z,94261.02
2019-01-27T00:30:56.352Z,94260.39
2019-01-27T00:33:23.741Z,94260.39
2019-01-27T00:35:51.299Z,94273.72
2019-01-27T00:38:18.740Z,94267.98
2019-01-27T00:40:46.105Z,94272.07
2019-01-27T00:43:13.647Z,94266.53
2019-01-27T00:45:41.077Z,94267.91
2019-01-27T00:48:08.637Z,94273.22
2019-01-27T00:50:36.134Z,94269.69
2019-01-27T00:53:03.859Z,94289.14
2019-01-27T00:55:31.213Z,94280.08
2019-01-27T00:57:58.635Z,94277.60
2019-01-27T01:00:26.382Z,94281.53
2019-01-27T01:02:53.931Z,94280.35
2019-01-27T01:05:21.460Z,94275.78
2019-01-27T01:07:48.988Z,94280.08
2019-01-27T01:10:18.188Z,94269.98
2019-01-27T01:12:45.820Z,94242.06
2019-01-27T01:15:13.537Z,94268.47
2019-01-27T01:17:41.054Z,94271.67
2019-01-27T01:20:11.490Z,94276.48
2019-01-27T01:22:39.947Z,94266.21
2019-01-27T01:25:10.554Z,94268.38
2019-01-27T01:27:38.210Z,94272.80
2019-01-27T01:30:06.817Z,94271.69
2019-01-27T01:32:34.277Z,94276.45
2019-01-27T01:35:01.777Z,94284.22
2019-01-27T01:37:29.226Z,94284.22
2019-01-27T01:39:56.661Z,94286.14
2019-01-27T01:42:24.079Z,94289.33
2019-01-27T01:44:51.544Z,94297.95
2019-01-27T01:47:18.990Z,94297.95
2019-01-27T01:49:46.491Z,94292.41
2019-01-27T01:52:14.011Z,94299.50
2019-01-27T01:54:41.558Z,94296.20
2019-01-27T01:57:09.710Z,94299.42
2019-01-27T01:59:37.085Z,94290.13
2019-01-27T02:02:05.057Z,94291.26
2019-01-27T02:04:32.520Z,94296.69
2019-01-27T02:06:59.908Z,94280.76
2019-01-27T02:09:27.539Z,94302.98
2019-01-27T02:11:54.950Z,94292.20
2019-01-27T02:14:22.365Z,94292.30
2019-01-27T02:16:49.905Z,94284.78
2019-01-27T02:19:17.328Z,94290.59
2019-01-27T02:21:45.952Z,94290.59
2019-01-27T02:24:13.405Z,94294.29
2019-01-27T02:26:40.856Z,94292.19
2019-01-27T02:29:08.325Z,94292.58
2019-01-27T02:31:35.927Z,94292.58
2019-01-27T02:34:03.625Z,94301.86
2019-01-27T02:36:31.045Z,94298.43
2019-01-27T02:38:58.569Z,94307.21
2019-01-27T02:41:25.997Z,94305.71
2019-01-27T02:43:53.413Z,94310.04
2019-01-27T02:46:20.828Z,94304.22
2019-01-27T02:48:48.184Z,94310.08
2019-01-27T02:51:15.704Z,94304.82
2019-01-27T02:53:43.202Z,94318.47
2019-01-27T02:56:10.624Z,94311.79
2019-01-27T02:58:38.060Z,94317.00
2019-01-27T03:01:05.647Z,94317.53
2019-01-27T03:03:33.064Z,94320.26
2019-01-27T03:06:18.697Z,94308.78
2019-01-27T03:08:55.881Z,94311.25
2019-01-27T03:11:23.437Z,94316.97
2019-01-27T03:13:50.835Z,94318.56
2019-01-27T03:16:18.370Z,94323.27
2019-01-27T03:18:45.801Z,94313.67
2019-01-27T03:21:13.269Z,94323.93
2019-01-27T03:23:41.239Z,94323.93
2019-01-27T03:26:08.683Z,94310.13
2019-01-27T03:28:36.125Z,94303.86
2019-01-27T03:31:03.718Z,94308.80
2019-01-27T03:33:31.146Z,94309.58
2019-01-27T03:35:58.594Z,94308.84
2019-01-27T03:38:26.024Z,94308.84
2019-01-27T03:40:53.494Z,94309.42
2019-01-27T03:43:21.005Z,94312.65
2019-01-27T03:45:48.668Z,94306.56
2019-01-27T03:48:16.144Z,94302.80
2019-01-27T03:50:43.620Z,94295.99
2019-01-27T03:53:11.178Z,94300.93
2019-01-27T03:55:38.723Z,94301.30
2019-01-27T03:58:06.099Z,94311.55
2019-01-27T04:00:33.617Z,94306.58
2019-01-27T04:03:01.057Z,94317.14
2019-01-27T04:05:28.437Z,94310.23
2019-01-27T04:07:55.879Z,94306.86
2019-01-27T04:10:23.436Z,94313.48
2019-01-27T04:12:50.925Z,94307.98
2019-01-27T04:15:18.746Z,94315.61
2019-01-27T04:17:46.252Z,94303.48
2019-01-27T04:20:18.256Z,94300.66
2019-01-27T04:22:45.909Z,94297.64
2019-01-27T04:25:14.890Z,94297.86
2019-01-27T04:27:42.436Z,94302.58
2019-01-27T04:30:13.178Z,94308.08
2019-01-27T04:32:40.687Z,94296.78
2019-01-27T04:35:09.647Z,94297.33
2019-01-27T04:37:37.205Z,94306.59
2019-01-27T04:40:06.491Z,94307.77
2019-01-27T04:42:34.033Z,94315.67
2019-01-27T04:45:01.457Z,94323.91
2019-01-27T04:47:28.885Z,94323.66
2019-01-27T04:49:56.244Z,94315.73
2019-01-27T04:52:23.787Z,94323.17
2019-01-27T04:54:51.288Z,94319.75
2019-01-27T04:57:18.660Z,94313.53
2019-01-27T04:59:46.083Z,94315.60
2019-01-27T05:02:13.590Z,94315.80
2019-01-27T05:04:41.790Z,94319.38
2019-01-27T05:07:09.315Z,94327.28
2019-01-27T05:09:36.746Z,94334.84
2019-01-27T05:12:05.111Z,94339.23
2019-01-27T05:14:32.538Z,94340.00
2019-01-27T05:16:59.984Z,94336.17
2019-01-27T05:19:27.399Z,94341.99
2019-01-27T05:21:54.783Z,94344.85
2019-01-27T05:24:22.214Z,94332.75
2019-01-27T05:26:49.702Z,94347.30
2019-01-27T05:29:17.126Z,94345.30
2019-01-27T05:31:44.477Z,94339.35
2019-01-27T05:34:11.899Z,94335.41
2019-01-27T05:36:39.347Z,94342.83
2019-01-27T05:39:07.779Z,94332.95
2019-01-27T05:41:35.246Z,94337.11
2019-01-27T05:44:02.855Z,94343.98
2019-01-27T05:46:30.207Z,94347.33
2019-01-27T05:48:57.771Z,94348.30
2019-01-27T05:51:25.231Z,94342.09
2019-01-27T05:53:52.695Z,94346.87
2019-01-27T05:56:20.212Z,94342.92
2019-01-27T05:58:47.708Z,94341.83
2019-01-27T06:01:15.133Z,94340.55
2019-01-27T06:03:42.642Z,94344.66
2019-01-27T06:06:10.072Z,94343.91
2019-01-27T06:08:37.620Z,94344.75
2019-01-27T06:11:05.093Z,94347.37
2019-01-27T06:13:32.480Z,94348.10
2019-01-27T06:15:59.951Z,94352.42
2019-01-27T06:18:27.450Z,94356.67
2019-01-27T06:20:54.892Z,94358.53
2019-01-27T06:23:22.842Z,94359.00
2019-01-27T06:25:50.363Z,94363.48
2019-01-27T06:28:17.798Z,94361.54
2019-01-27T06:30:45.279Z,94347.95
2019-01-27T06:33:32.235Z,94347.95
2019-01-27T06:35:59.722Z,94361.72
2019-01-27T06:38:27.157Z,94356.29
2019-01-27T06:40:54.583Z,94349.66
2019-01-27T06:43:21.970Z,94355.22
2019-01-27T06:45:49.423Z,94353.46
2019-01-27T06:48:16.857Z,94352.48
2019-01-27T06:50:44.312Z,94359.80
2019-01-27T06:53:11.758Z,94357.75
2019-01-27T06:55:39.350Z,94347.52
2019-01-27T06:58:06.858Z,94348.84
2019-01-27T07:00:59.067Z,94346.45
2019-01-27T07:03:32.973Z,94349.02
2019-01-27T07:06:16.490Z,94351.97
2019-01-27T07:09:05.105Z,94348.20
2019-01-27T07:11:45.323Z,94354.70
2019-01-27T07:14:35.141Z,94358.46
2019-01-27T07:17:20.768Z,94357.20
2019-01-27T07:20:06.469Z,94361.98
2019-01-27T07:22:42.033Z,94351.99
2019-01-27T07:25:28.202Z,94353.16
2019-01-27T07:28:24.110Z,94361.34
2019-01-27T07:31:09.587Z,94353.05
2019-01-27T07:33:48.305Z,94349.95
2019-01-27T07:36:43.934Z,94347.73
2019-01-27T07:39:22.563Z,94351.53
2019-01-27T07:42:15.206Z,94352.49
2019-01-27T07:45:18.729Z,94341.34
2019-01-27T07:48:12.863Z,94346.43
2019-01-27T07:50:59.845Z,94347.25
2019-01-27T07:53:34.536Z,94348.38
2019-01-27T07:56:16.210Z,94347.09
2019-01-27T07:59:03.279Z,94349.56
2019-01-27T08:01:55.590Z,94349.14
2019-01-27T08:04:45.385Z,94353.12
2019-01-27T08:07:30.794Z,94341.96
2019-01-27T08:10:12.032Z,94339.43
2019-01-27T08:13:05.040Z,94356.80
2019-01-27T08:15:49.037Z,94327.64
2019-01-27T08:18:33.053Z,94345.77
2019-01-27T08:21:07.379Z,94349.86
2019-01-27T08:23:53.017Z,94349.86
2019-01-27T08:26:33.187Z,94352.92
2019-01-27T08:29:20.150Z,94354.25
2019-01-27T08:32:05.945Z,94345.28
2019-01-27T08:34:57.143Z,94343.50
2019-01-27T08:37:33.498Z,94356.59
2019-01-27T08:40:23.451Z,94339.62
2019-01-27T08:43:13.039Z,94347.56
2019-01-27T08:45:53.848Z,94346.84
2019-01-27T08:48:21.276Z,94356.47
2019-01-27T08:50:48.637Z,94342.85
2019-01-27T08:53:16.061Z,94344.84
2019-01-27T08:55:43.514Z,94344.42
2019-01-27T08:58:10.935Z,94346.16
2019-01-27T09:00:39.839Z,94337.37
2019-01-27T09:03:45.309Z,94336.61
2019-01-27T09:06:50.593Z,94342.96
2019-01-27T09:09:38.039Z,94350.73
2019-01-27T09:12:28.012Z,94340.80
2019-01-27T09:15:29.943Z,94341.98
2019-01-27T09:18:15.765Z,94338.19
2019-01-27T09:20:54.231Z,94342.94
2019-01-27T09:23:31.787Z,94338.68
2019-01-27T09:26:13.883Z,94347.91
2019-01-27T09:29:03.907Z,94347.26
2019-01-27T09:31:53.738Z,94348.59
2019-01-27T09:34:28.340Z,94353.34
2019-01-27T09:37:27.638Z,94353.77
2019-01-27T09:40:13.305Z,94355.49
2019-01-27T09:42:54.453Z,94353.20
2019-01-27T09:45:57.749Z,94355.09
2019-01-27T09:48:32.770Z,94347.02
2019-01-27T09:51:18.307Z,94347.16
2019-01-27T09:54:11.143Z,94349.62
2019-01-27T09:56:57.369Z,94338.87
2019-01-27T09:59:38.528Z,94336.50
2019-01-27T10:05:44.196Z,94335.35
2019-01-27T10:08:46.035Z,94340.48
2019-01-27T10:11:32.983Z,94334.04
2019-01-27T10:14:19.954Z,94326.89
2019-01-27T10:17:14.004Z,94325.43
2019-01-27T10:20:04.061Z,94323.39
2019-01-27T10:23:00.294Z,94316.45
2019-01-27T10:25:59.131Z,94318.14
2019-01-27T10:29:01.392Z,94314.16
2019-01-27T10:31:48.324Z,94310.61
2019-01-27T10:34:41.281Z,94314.30
2019-01-27T10:37:28.234Z,94304.75
2019-01-27T10:40:09.212Z,94307.84
2019-01-27T10:42:39.521Z,94313.09
2019-01-27T10:45:26.318Z,94304.70
2019-01-27T10:48:13.301Z,94289.03
2019-01-27T10:50:58.743Z,94283.73
2019-01-27T10:53:35.116Z,94290.75
2019-01-27T10:56:18.112Z,94286.83
2019-01-27T10:59:14.260Z,94282.56
2019-01-27T11:02:01.423Z,94278.33
2019-01-27T11:04:44.193Z,94275.94
2019-01-27T11:07:37.090Z,94275.80
2019-01-27T11:10:37.848Z,94272.89
2019-01-27T11:13:25.044Z,94263.77
2019-01-27T11:16:15.642Z,94268.45
2019-01-27T11:18:52.179Z,94269.87
2019-01-27T11:21:35.410Z,94262.61
2019-01-27T11:24:21.362Z,94256.54
2019-01-27T11:27:08.395Z,94256.34
2019-01-27T11:29:58.670Z,94253.79
2019-01-27T11:32:48.490Z,94258.01
2019-01-27T11:35:41.405Z,94248.19
2019-01-27T11:38:31.540Z,94246.50
2019-01-27T11:41:20.769Z,94253.63
2019-01-27T11:44:00.924Z,94252.69
2019-01-27T11:46:47.617Z,94239.02
2019-01-27T11:49:27.905Z,94237.92
2019-01-27T11:52:15.450Z,94228.34
2019-01-27T11:54:39.058Z,94219.89
2019-01-27T11:57:06.551Z,94225.99
2019-01-27T11:59:34.175Z,94222.61
2019-01-27T12:02:01.547Z,94222.59
2019-01-27T12:04:29.096Z,94218.23
2019-01-27T12:06:56.575Z,94212.86
2019-01-27T12:09:24.067Z,94217.77
2019-01-27T12:11:51.603Z,94212.14
2019-01-27T12:14:19.054Z,94212.21
2019-01-27T12:16:46.481Z,94204.95
2019-01-27T12:19:13.937Z,94215.09
2019-01-27T12:21:41.516Z,94204.73
2019-01-27T12:24:09.092Z,94204.91
2019-01-27T12:26:36.564Z,94191.34
2019-01-27T12:29:04.094Z,94182.11
2019-01-27T12:31:31.560Z,94186.78
2019-01-27T12:33:58.920Z,94179.48
2019-01-27T12:36:26.475Z,94178.06
2019-01-27T12:38:54.006Z,94174.81
2019-01-27T12:41:21.473Z,94176.83
2019-01-27T12:43:48.937Z,94178.34
2019-01-27T12:46:16.449Z,94173.83
2019-01-27T12:48:43.900Z,94181.70
2019-01-27T12:51:11.522Z,94178.84
2019-01-27T12:53:39.102Z,94178.02
2019-01-27T12:56:06.700Z,94169.70
2019-01-27T12:58:34.143Z,94164.00
2019-01-27T13:01:06.023Z,94166.06
2019-01-27T13:03:33.393Z,94169.48
2019-01-27T13:06:00.834Z,94169.11
2019-01-27T13:08:28.268Z,94169.30
2019-01-27T13:10:55.726Z,94168.35
2019-01-27T13:13:23.196Z,94172.48
2019-01-27T13:15:50.735Z,94165.42
2019-01-27T13:18:18.527Z,94161.94
2019-01-27T13:20:46.123Z,94167.52
2019-01-27T13:23:13.580Z,94169.98
2019-01-27T13:25:41.106Z,94172.70
2019-01-27T13:28:08.644Z,94169.32
2019-01-27T13:30:36.087Z,94167.98
2019-01-27T13:33:03.654Z,94163.59
2019-01-27T13:35:31.117Z,94148.02
2019-01-27T13:37:58.600Z,94153.44
2019-01-27T13:40:26.187Z,94158.78
2019-01-27T13:42:53.619Z,94154.02
2019-01-27T13:45:23.466Z,94148.09
2019-01-27T13:47:50.935Z,94150.88
2019-01-27T13:50:18.553Z,94142.36
2019-01-27T13:52:46.297Z,94138.03
2019-01-27T13:55:16.678Z,94143.71
2019-01-27T13:57:44.233Z,94138.84
2019-01-27T14:00:19.252Z,94142.16
2019-01-27T14:02:47.140Z,94135.70
2019-01-27T14:05:14.670Z,94138.80
2019-01-27T14:07:42.237Z,94138.09
2019-01-27T14:10:13.245Z,94134.63
2019-01-27T14:12:40.746Z,94136.83
2019-01-27T14:15:12.869Z,94136.06
2019-01-27T14:17:40.654Z,94131.88
2019-01-27T14:20:10.798Z,94148.13
2019-01-27T14:22:38.317Z,94144.41
2019-01-27T14:25:07.133Z,94137.22
2019-01-27T14:27:35.143Z,94146.66
2019-01-27T14:30:03.022Z,94141.22
2019-01-27T14:32:30.505Z,94146.30
2019-01-27T14:34:57.995Z,94135.93
2019-01-27T14:37:25.386Z,94137.70
2019-01-27T14:39:52.831Z,94139.50
2019-01-27T14:42:20.402Z,94137.77
2019-01-27T14:44:47.783Z,94140.39
2019-01-27T14:47:15.228Z,94132.12
2019-01-27T14:49:42.705Z,94131.80
2019-01-27T14:52:10.244Z,94145.62
2019-01-27T14:54:37.659Z,94141.64
2019-01-27T14:57:05.096Z,94139.72
2019-01-27T14:59:32.578Z,94145.50
2019-01-27T15:02:00.009Z,94151.59
2019-01-27T15:04:27.363Z,94152.70
2019-01-27T15:06:54.813Z,94154.60
2019-01-27T15:09:22.270Z,94150.11
2019-01-27T15:11:49.666Z,94162.71
2019-01-27T15:14:17.232Z,94161.55
2019-01-27T15:16:44.751Z,94162.70
2019-01-27T15:19:12.158Z,94158.19
2019-01-27T15:21:39.676Z,94159.78
2019-01-27T15:24:07.188Z,94166.25
2019-01-27T15:26:34.692Z,94164.03
2019-01-27T15:29:02.076Z,94170.80
2019-01-27T15:31:29.542Z,94178.73
2019-01-27T15:33:57.112Z,94168.56
2019-01-27T15:36:24.588Z,94176.48
2019-01-27T15:38:52.892Z,94171.91
2019-01-27T15:41:20.509Z,94159.36
2019-01-27T15:43:48.761Z,94177.33
2019-01-27T15:46:16.354Z,94178.16
2019-01-27T15:48:43.816Z,94177.83
2019-01-27T15:51:11.228Z,94182.34
2019-01-27T15:53:38.761Z,94183.23
2019-01-27T15:56:06.253Z,94186.02
2019-01-27T15:58:33.722Z,94184.23
2019-01-27T16:01:01.168Z,94190.02
2019-01-27T16:03:28.734Z,94185.39
2019-01-27T16:05:56.357Z,94183.61
2019-01-27T16:08:23.707Z,94179.22
2019-01-27T16:10:51.133Z,94190.95
2019-01-27T16:13:18.567Z,94189.88
2019-01-27T16:15:46.135Z,94195.23
2019-01-27T16:18:13.588Z,94193.75
2019-01-27T16:20:41.273Z,94200.00
2019-01-27T16:23:28.376Z,94199.84
2019-01-27T16:25:57.382Z,94199.72
2019-01-27T16:28:24.870Z,94206.13
2019-01-27T16:31:10.749Z,94206.83
2019-01-27T16:33:57.814Z,94208.63
2019-01-27T16:36:25.341Z,94209.03
2019-01-27T16:38:52.820Z,94209.23
2019-01-27T16:41:20.930Z,94215.39
2019-01-27T16:43:48.665Z,94215.94
2019-01-27T16:46:16.303Z,94212.51
2019-01-27T16:48:43.726Z,94207.99
2019-01-27T16:51:11.512Z,94219.62
2019-01-27T16:53:38.977Z,94224.42
2019-01-27T16:56:06.460Z,94230.14
2019-01-27T16:58:33.911Z,94223.53
2019-01-27T17:01:01.492Z,94226.71
2019-01-27T17:03:29.163Z,94233.21
2019-01-27T17:05:56.701Z,94218.72
2019-01-27T17:08:24.082Z,94227.62
2019-01-27T17:10:51.550Z,94224.56
2019-01-27T17:13:19.007Z,94228.58
2019-01-27T17:15:46.505Z,94234.84
2019-01-27T17:18:14.147Z,94231.95
2019-01-27T17:20:41.898Z,94233.59
2019-01-27T17:23:09.499Z,94233.23
2019-01-27T17:25:36.923Z,94234.97
2019-01-27T17:28:05.058Z,94238.66
2019-01-27T17:30:32.679Z,94230.63
2019-01-27T17:33:00.196Z,94225.05
2019-01-27T17:35:28.140Z,94213.40
2019-01-27T17:37:55.592Z,94214.69
2019-01-27T17:40:23.548Z,94217.09
2019-01-27T17:42:51.213Z,94211.46
2019-01-27T17:45:18.898Z,94220.31
2019-01-27T17:47:46.649Z,94230.55
2019-01-27T17:50:15.361Z,94246.88
2019-01-27T17:52:42.944Z,94228.83
2019-01-27T17:55:32.559Z,94230.17
2019-01-27T17:58:22.521Z,94237.91
2019-01-27T18:01:08.324Z,94240.98
2019-01-27T18:03:53.675Z,94247.30
2019-01-27T18:06:26.105Z,94240.48
2019-01-27T18:09:19.176Z,94239.48
2019-01-27T18:11:54.425Z,94241.66
2019-01-27T18:14:26.851Z,94247.09
2019-01-27T18:16:54.372Z,94248.33
2019-01-27T18:19:22.001Z,94248.28
2019-01-27T18:21:49.452Z,94231.95
2019-01-27T18:24:16.952Z,94249.72
2019-01-27T18:26:44.418Z,94244.09
2019-01-27T18:29:11.953Z,94246.21
2019-01-27T18:31:39.441Z,94255.22
2019-01-27T18:34:07.045Z,94256.69
2019-01-27T18:36:34.691Z,94261.53
2019-01-27T18:39:04.984Z,94270.30
2019-01-27T18:41:32.423Z,94264.94
2019-01-27T18:43:59.909Z,94260.70
2019-01-27T18:46:28.075Z,94262.83
2019-01-27T18:48:55.672Z,94264.25
2019-01-27T18:51:23.106Z,94272.16
2019-01-27T18:54:12.552Z,94265.27
2019-01-27T18:57:08.392Z,94269.23
2019-01-27T18:59:48.533Z,94272.66
2019-01-27T19:02:34.754Z,94266.66
2019-01-27T19:05:31.105Z,94265.02
2019-01-27T19:08:20.786Z,94268.94
2019-01-27T19:11:07.743Z,94271.00
2019-01-27T19:13:54.684Z,94270.47
2019-01-27T19:16:35.486Z,94265.14
2019-01-27T19:19:14.151Z,94278.87
2019-01-27T19:22:04.235Z,94277.17
2019-01-27T19:24:49.095Z,94268.44
2019-01-27T19:27:48.185Z,94267.91
2019-01-27T19:30:35.898Z,94269.87
2019-01-27T19:33:21.631Z,94265.78
2019-01-27T19:36:17.442Z,94259.66
2019-01-27T19:39:10.568Z,94259.39
2019-01-27T19:42:00.616Z,94249.05
2019-01-27T19:44:36.656Z,94239.77
2019-01-27T19:47:29.481Z,94248.36
2019-01-27T19:50:07.618Z,94239.48
2019-01-27T19:53:00.812Z,94244.13
2019-01-27T19:55:43.177Z,94240.49
2019-01-27T19:58:45.023Z,94237.22
2019-01-27T20:01:18.856Z,94238.02
2019-01-27T20:03:59.788Z,94229.11
2019-01-27T20:06:33.251Z,94226.03
2019-01-27T20:09:10.716Z,94226.22
2019-01-27T20:11:53.924Z,94216.30
2019-01-27T20:14:43.186Z,94211.27
2019-01-27T20:17:36.193Z,94219.46
2019-01-27T20:20:22.784Z,94217.45
2019-01-27T20:22:59.034Z,94211.88
2019-01-27T20:25:38.070Z,94199.95
2019-01-27T20:28:25.090Z,94202.92
2019-01-27T20:31:12.031Z,94201.52
2019-01-27T20:34:00.497Z,94200.10
2019-01-27T20:37:05.847Z,94193.97
2019-01-27T20:40:04.963Z,94197.63
2019-01-27T20:42:41.371Z,94189.88
2019-01-27T20:45:36.041Z,94189.88
2019-01-27T20:48:32.304Z,94195.53
2019-01-27T20:51:23.010Z,94203.50
2019-01-27T20:54:08.744Z,94197.47
2019-01-27T20:57:01.570Z,94196.86
2019-01-27T20:59:36.147Z,94184.36
2019-01-27T21:02:23.937Z,94182.70
2019-01-27T21:05:16.142Z,94185.03
2019-01-27T21:08:06.025Z,94179.02
2019-01-27T21:11:01.001Z,94172.61
2019-01-27T21:13:55.278Z,94172.61
2019-01-27T21:16:37.773Z,94171.45
2019-01-27T21:19:18.810Z,94162.33
2019-01-27T21:21:46.260Z,94162.33
2019-01-27T21:24:13.933Z,94149.51
2019-01-27T21:26:42.959Z,94136.77
2019-01-27T21:29:10.413Z,94130.01
2019-01-27T21:31:37.892Z,94135.50
2019-01-27T21:34:05.401Z,94150.29
2019-01-27T21:36:32.795Z,94156.31
2019-01-27T21:39:00.294Z,94152.70
2019-01-27T21:41:27.727Z,94141.07
2019-01-27T21:43:55.235Z,94137.06
2019-01-27T21:46:22.694Z,94146.87
2019-01-27T21:48:50.139Z,94152.92
2019-01-27T21:51:17.652Z,94153.47
2019-01-27T21:53:45.080Z,94154.12
2019-01-27T21:56:12.559Z,94153.68
2019-01-27T21:58:39.940Z,94162.70
2019-01-27T22:01:07.453Z,94162.99
2019-01-27T22:03:34.997Z,94173.08
2019-01-27T22:06:02.467Z,94184.07
2019-01-27T22:08:29.956Z,94191.02
2019-01-27T22:10:57.802Z,94190.08
2019-01-27T22:13:25.291Z,94185.87
2019-01-27T22:15:52.699Z,94178.14
2019-01-27T22:18:20.140Z,94183.53
2019-01-27T22:20:47.639Z,94177.73
2019-01-27T22:23:14.990Z,94177.73
2019-01-27T22:25:42.560Z,94189.16
2019-01-27T22:28:10.008Z,94180.12
2019-01-27T22:30:37.571Z,94180.19
2019-01-27T22:33:05.076Z,94177.61
2019-01-27T22:35:32.584Z,94177.61
2019-01-27T22:37:59.973Z,94179.56
2019-01-27T22:40:27.411Z,94182.40
2019-01-27T22:42:54.784Z,94177.54
2019-01-27T22:45:22.513Z,94171.31
2019-01-27T22:47:50.058Z,94181.33
2019-01-27T22:50:17.779Z,94186.92
2019-01-27T22:52:45.312Z,94186.92
2019-01-27T22:55:12.948Z,94179.98
2019-01-27T22:57:40.525Z,94188.77
2019-01-27T23:00:21.213Z,94183.00
2019-01-27T23:02:48.749Z,94171.58
2019-01-27T23:05:16.155Z,94174.31
2019-01-27T23:07:43.627Z,94179.89
2019-01-27T23:10:11.182Z,94162.48
2019-01-27T23:12:38.592Z,94162.48
2019-01-27T23:15:06.345Z,94152.36
2019-01-27T23:17:33.980Z,94169.88
2019-01-27T23:20:01.530Z,94164.78
2019-01-27T23:22:29.012Z,94157.30
2019-01-27T23:24:56.457Z,94171.40
2019-01-27T23:27:24.013Z,94156.03
2019-01-27T23:29:51.470Z,94146.48
2019-01-27T23:32:18.910Z,94155.59
2019-01-27T23:34:46.318Z,94144.84
2019-01-27T23:37:13.784Z,94150.34
2019-01-27T23:39:41.218Z,94147.78
2019-01-27T23:42:08.953Z,94166.62
2019-01-27T23:44:36.321Z,94159.58
2019-01-27T23:47:03.857Z,94152.31
2019-01-27T23:49:31.305Z,94157.41
2019-01-27T23:51:58.727Z,94146.98
2019-01-27T23:54:26.126Z,94151.44
2019-01-27T23:56:53.559Z,94154.75
2019-01-27T23:59:20.971Z,94150.66
